createdAt,value
2023-10-23T00:00:56.977Z,4.50
2023-10-23T00:01:56.900Z,4.90
2023-10-23T00:02:56.961Z,4.80
2023-10-23T00:03:57.028Z,4.50
2023-10-23T00:04:56.971Z,4.60
2023-10-23T00:05:56.854Z,4.70
2023-10-23T00:06:56.859Z,4.40
2023-10-23T00:07:56.848Z,5.20
2023-10-23T00:08:56.894Z,4.70
2023-10-23T00:09:56.824Z,4.60
2023-10-23T00:10:56.808Z,4.40
2023-10-23T00:11:56.789Z,4.30
2023-10-23T00:12:57.145Z,4.50
2023-10-23T00:13:56.768Z,4.70
2023-10-23T00:14:56.765Z,4.40
2023-10-23T00:15:56.746Z,4.70
2023-10-23T00:16:56.770Z,4.40
2023-10-23T00:17:56.750Z,4.30
2023-10-23T00:18:56.744Z,4.80
2023-10-23T00:19:56.702Z,4.60
2023-10-23T00:20:56.696Z,4.60
2023-10-23T00:21:56.689Z,4.80
2023-10-23T00:22:56.689Z,4.90
2023-10-23T00:23:56.654Z,4.70
2023-10-23T00:24:56.655Z,4.80
2023-10-23T00:25:56.632Z,4.70
2023-10-23T00:26:56.647Z,4.60
2023-10-23T00:27:56.613Z,4.60
2023-10-23T00:28:56.617Z,4.40
2023-10-23T00:29:56.592Z,4.40
2023-10-23T00:30:56.636Z,4.50
2023-10-23T00:31:56.578Z,5.30
2023-10-23T00:32:56.650Z,4.90
2023-10-23T00:33:56.635Z,5.10
2023-10-23T00:34:56.547Z,5.00
2023-10-23T00:35:56.547Z,4.90
2023-10-23T00:36:56.567Z,5.20
2023-10-23T00:37:56.502Z,4.80
2023-10-23T00:38:56.494Z,4.80
2023-10-23T00:39:56.516Z,5.00
2023-10-23T00:40:56.482Z,4.60
2023-10-23T00:41:56.465Z,4.80
2023-10-23T00:42:56.489Z,4.50
2023-10-23T00:43:56.441Z,4.30
2023-10-23T00:44:56.429Z,4.70
2023-10-23T00:45:56.595Z,4.50
2023-10-23T00:46:56.447Z,4.10
2023-10-23T00:47:56.410Z,4.90
2023-10-23T00:48:56.412Z,4.70
2023-10-23T00:49:56.381Z,4.70
2023-10-23T00:50:56.411Z,4.50
2023-10-23T00:51:56.375Z,4.60
2023-10-23T00:52:56.342Z,4.50
2023-10-23T00:53:56.325Z,5.00
2023-10-23T00:54:56.414Z,4.40
2023-10-23T00:55:56.310Z,4.90
2023-10-23T00:56:56.302Z,4.70
2023-10-23T00:57:56.341Z,4.80
2023-10-23T00:58:56.281Z,5.40
2023-10-23T00:59:56.276Z,5.20
2023-10-23T01:00:56.472Z,5.60
2023-10-23T01:01:56.254Z,4.90
2023-10-23T01:02:56.272Z,5.10
2023-10-23T01:03:56.265Z,4.90
2023-10-23T01:04:56.227Z,4.90
2023-10-23T01:05:56.204Z,5.60
2023-10-23T01:06:56.242Z,5.20
2023-10-23T01:07:56.177Z,5.00
2023-10-23T01:08:56.205Z,5.10
2023-10-23T01:09:56.186Z,5.20
2023-10-23T01:10:56.171Z,4.70
2023-10-23T01:11:56.137Z,4.60
2023-10-23T01:12:56.161Z,5.10
2023-10-23T01:13:56.144Z,4.90
2023-10-23T01:14:56.113Z,5.10
2023-10-23T01:15:56.095Z,4.90
2023-10-23T01:16:56.161Z,4.90
2023-10-23T01:17:56.111Z,4.90
2023-10-23T01:18:56.107Z,5.30
2023-10-23T01:19:56.052Z,4.90
2023-10-23T01:20:56.048Z,5.10
2023-10-23T01:21:56.054Z,5.30
2023-10-23T01:22:56.035Z,5.10
2023-10-23T01:27:29.519Z,5.50
2023-10-23T01:28:30.486Z,5.40
2023-10-23T01:29:30.468Z,4.80
2023-10-23T01:30:30.490Z,5.30
2023-10-23T01:31:30.478Z,5.50
2023-10-23T01:32:30.742Z,4.60
2023-10-23T01:33:30.448Z,4.90
2023-10-23T01:34:30.420Z,5.20
2023-10-23T01:35:30.407Z,5.10
2023-10-23T01:36:30.426Z,5.00
2023-10-23T01:37:30.397Z,5.20
2023-10-23T01:38:30.375Z,5.60
2023-10-23T01:39:30.409Z,5.60
2023-10-23T01:40:30.350Z,5.60
2023-10-23T01:41:30.361Z,4.90
2023-10-23T01:42:30.354Z,5.00
2023-10-23T01:43:30.312Z,5.30
2023-10-23T01:44:30.305Z,5.00
2023-10-23T01:45:30.338Z,5.40
2023-10-23T01:46:30.416Z,5.20
2023-10-23T01:47:30.322Z,5.00
2023-10-23T01:48:30.272Z,5.10
2023-10-23T01:49:30.243Z,5.10
2023-10-23T01:50:30.261Z,5.10
2023-10-23T01:51:30.269Z,4.70
2023-10-23T01:52:30.215Z,5.00
2023-10-23T01:53:30.202Z,4.70
2023-10-23T01:54:30.213Z,5.30
2023-10-23T01:55:30.188Z,5.20
2023-10-23T01:56:30.173Z,5.30
2023-10-23T01:57:30.180Z,4.80
2023-10-23T01:58:30.148Z,5.10
2023-10-23T01:59:30.133Z,5.40
2023-10-23T02:00:30.218Z,5.00
2023-10-23T02:01:30.152Z,4.80
2023-10-23T02:02:30.174Z,4.60
2023-10-23T02:03:30.180Z,4.70
2023-10-23T02:04:30.107Z,4.80
2023-10-23T02:05:30.087Z,5.00
2023-10-23T02:06:30.094Z,5.10
2023-10-23T02:07:30.044Z,5.20
2023-10-23T02:08:30.062Z,5.10
2023-10-23T02:09:30.065Z,5.00
2023-10-23T02:10:30.023Z,5.60
2023-10-23T02:11:30.000Z,4.90
2023-10-23T02:12:30.016Z,5.00
2023-10-23T02:13:29.983Z,4.90
2023-10-23T02:14:29.982Z,5.10
2023-10-23T02:15:29.990Z,5.40
2023-10-23T02:16:29.988Z,5.50
2023-10-23T02:17:29.952Z,4.80
2023-10-23T02:18:30.001Z,5.20
2023-10-23T02:19:29.918Z,5.10
2023-10-23T02:20:29.904Z,4.90
2023-10-23T02:21:29.892Z,5.30
2023-10-23T02:22:29.879Z,4.50
2023-10-23T02:23:32.849Z,4.80
2023-10-23T02:24:29.905Z,4.90
2023-10-23T02:25:29.845Z,4.50
2023-10-23T02:26:29.835Z,4.80
2023-10-23T02:27:29.853Z,5.10
2023-10-23T02:28:29.854Z,4.70
2023-10-23T02:29:29.802Z,4.70
2023-10-23T02:30:29.831Z,5.00
2023-10-23T02:31:29.813Z,4.70
2023-10-23T02:32:29.790Z,4.80
2023-10-23T02:33:29.784Z,5.00
2023-10-23T02:34:29.767Z,5.00
2023-10-23T02:35:29.736Z,4.10
2023-10-23T02:36:29.783Z,4.70
2023-10-23T02:37:29.725Z,4.50
2023-10-23T02:38:29.734Z,4.70
2023-10-23T02:39:29.712Z,4.50
2023-10-23T02:40:29.696Z,4.50
2023-10-23T02:41:29.675Z,4.50
2023-10-23T02:42:29.693Z,4.90
2023-10-23T02:43:29.656Z,4.60
2023-10-23T02:44:29.696Z,4.50
2023-10-23T02:45:29.666Z,4.70
2023-10-23T02:46:29.648Z,4.70
2023-10-23T02:47:29.642Z,4.70
2023-10-23T02:48:29.650Z,4.60
2023-10-23T02:49:29.583Z,4.80
2023-10-23T02:50:29.579Z,4.70
2023-10-23T02:51:29.624Z,4.50
2023-10-23T02:52:29.567Z,4.40
2023-10-23T02:53:29.540Z,4.80
2023-10-23T02:54:29.612Z,4.40
2023-10-23T02:55:29.522Z,4.60
2023-10-23T02:56:29.525Z,4.90
2023-10-23T02:57:29.543Z,5.20
2023-10-23T02:58:29.493Z,4.40
2023-10-23T02:59:29.482Z,4.70
2023-10-23T03:00:29.500Z,4.70
2023-10-23T03:01:29.532Z,5.20
2023-10-23T03:02:29.559Z,4.80
2023-10-23T03:03:29.535Z,5.50
2023-10-23T03:04:29.468Z,5.10
2023-10-23T03:05:29.426Z,5.20
2023-10-23T03:06:29.466Z,5.60
2023-10-23T03:07:29.391Z,4.80
2023-10-23T03:08:29.392Z,5.10
2023-10-23T03:09:29.398Z,4.70
2023-10-23T03:10:29.372Z,5.40
2023-10-23T03:11:29.376Z,5.90
2023-10-23T03:12:29.355Z,6.30
2023-10-23T03:13:29.328Z,6.50
2023-10-23T03:14:29.334Z,5.90
2023-10-23T03:15:29.341Z,5.30
2023-10-23T03:16:29.366Z,6.30
2023-10-23T03:17:29.287Z,6.50
2023-10-23T03:18:29.294Z,5.70
2023-10-23T03:19:30.057Z,6.80
2023-10-23T03:20:30.140Z,6.50
2023-10-23T03:21:29.241Z,6.30
2023-10-23T03:22:29.220Z,6.40
2023-10-23T03:23:29.250Z,7.10
2023-10-23T03:24:29.221Z,6.40
2023-10-23T03:25:30.094Z,6.80
2023-10-23T03:26:29.185Z,6.40
2023-10-23T03:27:29.200Z,7.20
2023-10-23T03:28:29.161Z,6.80
2023-10-23T03:29:29.157Z,6.00
2023-10-23T03:30:29.193Z,6.20
2023-10-23T03:31:29.137Z,6.30
2023-10-23T03:32:29.146Z,6.60
2023-10-23T03:33:29.141Z,5.80
2023-10-23T03:34:29.094Z,5.90
2023-10-23T03:35:29.080Z,6.10
2023-10-23T03:36:29.117Z,6.10
2023-10-23T03:37:29.059Z,6.20
2023-10-23T03:38:29.051Z,6.30
2023-10-23T03:39:29.076Z,6.30
2023-10-23T03:40:29.023Z,5.90
2023-10-23T03:41:29.022Z,6.10
2023-10-23T03:42:29.013Z,6.90
2023-10-23T03:43:29.036Z,7.00
2023-10-23T03:44:28.976Z,7.60
2023-10-23T03:45:29.002Z,8.30
2023-10-23T03:46:28.991Z,9.00
2023-10-23T03:47:28.967Z,7.80
2023-10-23T03:48:28.975Z,8.00
2023-10-23T03:49:28.921Z,7.80
2023-10-23T03:50:28.906Z,7.70
2023-10-23T03:51:28.978Z,7.30
2023-10-23T03:52:28.897Z,8.10
2023-10-23T03:53:28.885Z,7.70
2023-10-23T03:54:28.894Z,7.80
2023-10-23T03:55:29.630Z,7.60
2023-10-23T03:56:28.850Z,7.80
2023-10-23T03:57:28.879Z,7.50
2023-10-23T03:58:28.825Z,7.60
2023-10-23T03:59:28.812Z,7.10
2023-10-23T04:00:28.811Z,7.30
2023-10-23T04:01:28.820Z,6.70
2023-10-23T04:02:28.810Z,6.80
2023-10-23T04:03:28.839Z,7.30
2023-10-23T04:04:30.937Z,7.40
2023-10-23T04:05:28.809Z,6.70
2023-10-23T04:06:28.764Z,7.10
2023-10-23T04:07:28.719Z,7.20
2023-10-23T04:08:28.719Z,7.60
2023-10-23T04:09:28.760Z,7.50
2023-10-23T04:10:28.696Z,7.00
2023-10-23T04:11:28.701Z,7.70
2023-10-23T04:12:28.688Z,7.70
2023-10-23T04:13:30.573Z,7.60
2023-10-23T04:14:28.643Z,8.70
2023-10-23T04:15:28.677Z,7.10
2023-10-23T04:16:28.711Z,7.50
2023-10-23T04:17:28.618Z,7.70
2023-10-23T04:18:28.664Z,7.90
2023-10-23T04:19:28.595Z,6.90
2023-10-23T04:20:28.597Z,8.40
2023-10-23T04:21:28.594Z,7.90
2023-10-23T04:22:28.564Z,8.00
2023-10-23T04:23:28.555Z,8.60
2023-10-23T04:24:28.596Z,8.20
2023-10-23T04:25:28.554Z,8.00
2023-10-23T04:26:28.527Z,7.70
2023-10-23T04:27:28.529Z,7.20
2023-10-23T04:28:28.504Z,8.00
2023-10-23T04:29:28.514Z,7.60
2023-10-23T04:30:28.534Z,7.60
2023-10-23T04:31:28.491Z,7.30
2023-10-23T04:32:28.478Z,7.20
2023-10-23T04:33:28.505Z,7.50
2023-10-23T04:34:28.458Z,7.20
2023-10-23T04:35:28.421Z,7.40
2023-10-23T04:36:28.449Z,7.20
2023-10-23T04:37:28.419Z,7.70
2023-10-23T04:38:28.393Z,7.80
2023-10-23T04:39:28.417Z,7.30
2023-10-23T04:40:28.380Z,8.10
2023-10-23T04:41:28.375Z,8.30
2023-10-23T04:42:28.372Z,7.90
2023-10-23T04:43:28.361Z,7.60
2023-10-23T04:44:28.360Z,7.70
2023-10-23T04:45:28.337Z,7.90
2023-10-23T04:46:28.382Z,8.10
2023-10-23T04:47:28.302Z,7.40
2023-10-23T04:48:28.418Z,7.10
2023-10-23T04:49:28.276Z,7.50
2023-10-23T04:50:28.268Z,8.70
2023-10-23T04:51:28.297Z,8.20
2023-10-23T04:52:28.242Z,8.80
2023-10-23T04:53:28.245Z,8.60
2023-10-23T04:54:28.261Z,8.30
2023-10-23T04:55:28.208Z,8.60
2023-10-23T04:56:28.217Z,8.70
2023-10-23T04:57:28.243Z,9.10
2023-10-23T04:58:28.292Z,9.20
2023-10-23T04:59:28.160Z,9.30
2023-10-23T05:00:28.200Z,9.00
2023-10-23T05:01:28.199Z,9.20
2023-10-23T05:02:28.188Z,9.20
2023-10-23T05:03:28.211Z,9.30
2023-10-23T05:04:28.182Z,9.00
2023-10-23T05:05:28.097Z,10.00
2023-10-23T05:06:28.134Z,9.10
2023-10-23T05:07:28.092Z,9.90
2023-10-23T05:08:28.075Z,9.50
2023-10-23T05:09:28.081Z,8.80
2023-10-23T05:10:28.053Z,8.90
2023-10-23T05:11:28.046Z,9.20
2023-10-23T05:12:28.061Z,8.70
2023-10-23T05:13:28.009Z,9.20
2023-10-23T05:14:28.008Z,9.30
2023-10-23T05:15:28.007Z,9.90
2023-10-23T05:16:28.070Z,8.60
2023-10-23T05:17:27.967Z,9.30
2023-10-23T05:18:27.972Z,9.00
2023-10-23T05:19:27.946Z,9.50
2023-10-23T05:20:27.943Z,9.50
2023-10-23T05:21:28.007Z,9.10
2023-10-23T05:22:27.918Z,9.50
2023-10-23T05:23:27.912Z,9.80
2023-10-23T05:24:28.311Z,9.40
2023-10-23T05:25:27.895Z,8.60
2023-10-23T05:26:27.887Z,10.00
2023-10-23T05:27:27.912Z,9.20
2023-10-23T05:28:27.851Z,9.30
2023-10-23T05:29:27.838Z,9.90
2023-10-23T05:30:28.008Z,10.10
2023-10-23T05:31:27.822Z,9.50
2023-10-23T05:32:27.823Z,9.90
2023-10-23T05:33:27.799Z,9.90
2023-10-23T05:34:27.778Z,9.50
2023-10-23T05:35:27.783Z,9.30
2023-10-23T05:36:27.780Z,10.10
2023-10-23T05:37:27.738Z,10.20
2023-10-23T05:38:28.643Z,10.50
2023-10-23T05:39:27.750Z,10.60
2023-10-23T05:40:27.719Z,10.50
2023-10-23T05:41:27.696Z,11.20
2023-10-23T05:42:27.716Z,10.80
2023-10-23T05:43:27.697Z,10.80
2023-10-23T05:44:29.403Z,10.80
2023-10-23T05:45:27.721Z,11.70
2023-10-23T05:46:27.732Z,12.00
2023-10-23T05:47:27.661Z,11.70
2023-10-23T05:48:28.163Z,12.00
2023-10-23T05:49:27.614Z,11.80
2023-10-23T05:50:27.601Z,11.70
2023-10-23T05:51:27.597Z,11.90
2023-10-23T05:52:27.627Z,12.30
2023-10-23T05:53:27.583Z,11.90
2023-10-23T05:54:27.597Z,11.40
2023-10-23T05:55:27.537Z,11.10
2023-10-23T05:56:27.540Z,11.20
2023-10-23T05:57:27.534Z,11.70
2023-10-23T05:58:27.525Z,11.50
2023-10-23T05:59:27.500Z,10.70
2023-10-23T06:00:27.503Z,11.00
2023-10-23T06:01:27.503Z,11.60
2023-10-23T06:02:27.485Z,10.90
2023-10-23T06:03:27.531Z,10.80
2023-10-23T06:04:27.576Z,11.80
2023-10-23T06:05:27.424Z,11.20
2023-10-23T06:06:27.497Z,12.20
2023-10-23T06:07:27.457Z,12.20
2023-10-23T06:08:27.408Z,11.50
2023-10-23T06:09:27.397Z,12.10
2023-10-23T06:10:27.370Z,11.40
2023-10-23T06:11:27.358Z,11.10
2023-10-23T06:12:27.381Z,11.10
2023-10-23T06:13:27.335Z,11.90
2023-10-23T06:14:27.328Z,11.80
2023-10-23T06:15:27.330Z,11.40
2023-10-23T06:16:27.365Z,11.80
2023-10-23T06:17:27.377Z,12.30
2023-10-23T06:18:27.315Z,11.30
2023-10-23T06:19:27.269Z,11.70
2023-10-23T06:20:27.265Z,12.90
2023-10-23T06:21:27.314Z,12.20
2023-10-23T06:22:27.254Z,11.60
2023-10-23T06:23:27.223Z,12.20
2023-10-23T06:24:27.238Z,10.90
2023-10-23T06:25:27.208Z,12.10
2023-10-23T06:26:27.206Z,11.60
2023-10-23T06:27:27.204Z,11.20
2023-10-23T06:28:27.169Z,12.00
2023-10-23T06:29:27.154Z,11.20
2023-10-23T06:30:27.196Z,11.60
2023-10-23T06:31:27.163Z,11.90
2023-10-23T06:32:27.181Z,11.50
2023-10-23T06:33:27.130Z,11.10
2023-10-23T06:34:27.105Z,11.90
2023-10-23T06:35:27.095Z,12.10
2023-10-23T06:36:27.134Z,11.60
2023-10-23T06:37:27.069Z,11.70
2023-10-23T06:38:27.075Z,11.60
2023-10-23T06:39:27.039Z,12.90
2023-10-23T06:40:27.061Z,12.20
2023-10-23T06:41:27.013Z,12.10
2023-10-23T06:42:27.018Z,12.10
2023-10-23T06:43:26.990Z,12.40
2023-10-23T06:44:26.989Z,12.00
2023-10-23T06:45:37.640Z,11.30
2023-10-23T06:46:26.989Z,11.90
2023-10-23T06:47:26.999Z,12.80
2023-10-23T06:48:27.003Z,13.10
2023-10-23T06:49:26.930Z,12.80
2023-10-23T06:50:26.930Z,12.90
2023-10-23T06:51:26.898Z,12.40
2023-10-23T06:52:26.896Z,13.50
2023-10-23T06:53:26.873Z,12.40
2023-10-23T06:54:26.932Z,12.20
2023-10-23T06:55:26.852Z,12.10
2023-10-23T06:56:26.847Z,12.20
2023-10-23T06:57:26.834Z,12.90
2023-10-23T06:58:26.830Z,12.50
2023-10-23T06:59:26.844Z,12.10
2023-10-23T07:00:26.814Z,12.60
2023-10-23T07:01:41.598Z,12.10
2023-10-23T07:02:26.841Z,12.00
2023-10-23T07:03:26.870Z,12.70
2023-10-23T07:04:26.788Z,12.30
2023-10-23T07:05:26.744Z,12.30
2023-10-23T07:06:26.740Z,11.20
2023-10-23T07:07:30.038Z,12.80
2023-10-23T07:08:26.741Z,12.00
2023-10-23T07:09:26.727Z,12.30
2023-10-23T07:10:26.700Z,11.80
2023-10-23T07:11:26.687Z,12.10
2023-10-23T07:12:26.684Z,12.10
2023-10-23T07:13:26.690Z,12.10
2023-10-23T07:14:26.663Z,11.80
2023-10-23T07:15:26.693Z,11.70
2023-10-23T07:16:26.728Z,12.40
2023-10-23T07:17:26.668Z,12.50
2023-10-23T07:18:26.696Z,12.20
2023-10-23T07:19:26.605Z,12.90
2023-10-23T07:20:26.602Z,12.60
2023-10-23T07:21:26.623Z,12.90
2023-10-23T07:22:26.575Z,12.80
2023-10-23T07:23:26.585Z,12.50
2023-10-23T07:24:26.554Z,12.10
2023-10-23T07:25:26.542Z,12.40
2023-10-23T07:26:26.560Z,11.90
2023-10-23T07:27:27.732Z,12.20
2023-10-23T07:28:26.628Z,12.30
2023-10-23T07:29:26.492Z,13.30
2023-10-23T07:30:26.518Z,13.10
2023-10-23T07:31:26.497Z,12.90
2023-10-23T07:32:26.516Z,13.40
2023-10-23T07:33:26.451Z,12.20
2023-10-23T07:34:26.444Z,12.00
2023-10-23T07:35:27.117Z,12.70
2023-10-23T07:36:26.418Z,12.20
2023-10-23T07:37:26.413Z,12.80
2023-10-23T07:38:26.391Z,12.60
2023-10-23T07:39:26.395Z,13.80
2023-10-23T07:40:26.366Z,12.80
2023-10-23T07:41:26.347Z,12.60
2023-10-23T07:42:26.353Z,13.60
2023-10-23T07:43:26.406Z,13.90
2023-10-23T07:44:26.338Z,14.00
2023-10-23T07:45:26.332Z,13.00
2023-10-23T07:46:26.356Z,14.10
2023-10-23T07:47:26.357Z,14.90
2023-10-23T07:48:28.578Z,15.80
2023-10-23T07:49:26.256Z,15.40
2023-10-23T07:50:26.274Z,14.10
2023-10-23T07:51:26.245Z,14.40
2023-10-23T07:52:26.222Z,14.90
2023-10-23T07:53:26.223Z,14.90
2023-10-23T07:54:26.211Z,14.60
2023-10-23T07:55:26.215Z,14.30
2023-10-23T07:56:26.201Z,14.60
2023-10-23T07:57:26.162Z,14.60
2023-10-23T07:58:27.109Z,15.50
2023-10-23T07:59:26.141Z,14.30
2023-10-23T08:00:26.145Z,15.30
2023-10-23T08:01:26.212Z,14.90
2023-10-23T08:02:26.246Z,14.90
2023-10-23T08:03:26.163Z,15.10
2023-10-23T08:04:26.180Z,15.30
2023-10-23T08:05:26.104Z,14.20
2023-10-23T08:06:26.076Z,14.80
2023-10-23T08:07:26.052Z,15.70
2023-10-23T08:08:26.044Z,15.40
2023-10-23T08:09:26.028Z,15.10
2023-10-23T08:10:26.055Z,15.90
2023-10-23T08:11:26.057Z,15.50
2023-10-23T08:12:26.037Z,15.80
2023-10-23T08:13:25.999Z,15.70
2023-10-23T08:14:26.016Z,16.40
2023-10-23T08:15:26.117Z,15.30
2023-10-23T08:16:26.063Z,15.30
2023-10-23T08:17:39.274Z,14.80
2023-10-23T08:18:37.485Z,15.10
2023-10-23T08:19:26.053Z,14.30
2023-10-23T08:20:25.913Z,16.10
2023-10-23T08:21:25.900Z,15.00
2023-10-23T08:22:25.940Z,14.80
2023-10-23T08:23:25.880Z,16.00
2023-10-23T08:24:25.881Z,15.00
2023-10-23T08:25:25.930Z,14.60
2023-10-23T08:26:25.849Z,15.20
2023-10-23T08:27:25.834Z,14.90
2023-10-23T08:28:26.079Z,15.20
2023-10-23T08:29:25.826Z,15.70
2023-10-23T08:30:25.805Z,15.20
2023-10-23T08:31:38.524Z,15.70
2023-10-23T08:32:34.041Z,15.70
2023-10-23T08:33:25.902Z,14.30
2023-10-23T08:34:25.917Z,14.50
2023-10-23T08:35:25.795Z,15.80
2023-10-23T08:36:25.752Z,14.50
2023-10-23T08:37:25.830Z,15.20
2023-10-23T08:38:25.726Z,14.70
2023-10-23T08:39:25.703Z,14.20
2023-10-23T08:40:25.693Z,14.30
2023-10-23T08:41:25.680Z,14.50
2023-10-23T08:42:25.671Z,14.50
2023-10-23T08:43:25.914Z,14.90
2023-10-23T08:44:25.807Z,14.80
2023-10-23T08:45:25.715Z,15.20
2023-10-23T08:46:25.725Z,15.30
2023-10-23T08:47:25.636Z,15.90
2023-10-23T08:48:25.617Z,15.60
2023-10-23T08:49:25.659Z,15.40
2023-10-23T08:50:25.583Z,15.30
2023-10-23T08:51:25.573Z,14.70
2023-10-23T08:52:25.642Z,15.40
2023-10-23T08:53:25.553Z,15.80
2023-10-23T08:54:25.543Z,14.60
2023-10-23T08:55:25.610Z,14.40
2023-10-23T08:56:25.520Z,15.10
2023-10-23T08:57:25.538Z,15.90
2023-10-23T08:58:25.508Z,15.20
2023-10-23T08:59:25.480Z,15.50
2023-10-23T09:00:25.471Z,15.60
2023-10-23T09:01:25.525Z,15.30
2023-10-23T09:02:25.459Z,15.60
2023-10-23T09:04:03.278Z,16.00
2023-10-23T09:04:25.673Z,15.60
2023-10-23T09:05:26.056Z,15.10
2023-10-23T09:06:25.581Z,15.40
2023-10-23T09:07:25.421Z,15.10
2023-10-23T09:08:25.405Z,15.70
2023-10-23T09:09:25.393Z,16.00
2023-10-23T09:10:25.421Z,15.60
2023-10-23T09:11:25.351Z,16.30
2023-10-23T09:12:25.338Z,16.20
2023-10-23T09:13:25.324Z,16.90
2023-10-23T09:14:25.319Z,16.70
2023-10-23T09:15:25.329Z,16.50
2023-10-23T09:16:25.404Z,15.40
2023-10-23T09:17:25.305Z,15.20
2023-10-23T09:18:25.276Z,14.80
2023-10-23T09:19:25.269Z,15.40
2023-10-23T09:20:28.362Z,15.10
2023-10-23T09:21:25.348Z,16.00
2023-10-23T09:22:25.241Z,15.30
2023-10-23T09:23:25.213Z,15.20
2023-10-23T09:24:25.203Z,14.80
2023-10-23T09:25:25.277Z,16.00
2023-10-23T09:26:25.183Z,16.50
2023-10-23T09:27:25.168Z,15.30
2023-10-23T09:28:25.161Z,17.20
2023-10-23T09:29:25.172Z,17.10
2023-10-23T09:30:25.151Z,17.00
2023-10-23T09:31:25.210Z,17.70
2023-10-23T09:32:25.119Z,17.80
2023-10-23T09:33:25.116Z,18.10
2023-10-23T09:34:25.124Z,18.40
2023-10-23T09:35:25.090Z,18.60
2023-10-23T09:36:25.073Z,18.10
2023-10-23T09:37:25.094Z,18.90
2023-10-23T09:38:25.052Z,18.00
2023-10-23T09:39:25.079Z,18.80
2023-10-23T09:40:25.063Z,18.10
2023-10-23T09:41:25.016Z,19.10
2023-10-23T09:42:25.016Z,18.80
2023-10-23T09:43:27.490Z,20.00
2023-10-23T09:44:25.001Z,19.30
2023-10-23T09:45:24.982Z,21.30
2023-10-23T09:46:25.048Z,21.70
2023-10-23T09:47:24.944Z,21.20
2023-10-23T09:48:25.019Z,20.80
2023-10-23T09:49:25.047Z,22.10
2023-10-23T09:50:25.599Z,22.10
2023-10-23T09:51:24.901Z,22.50
2023-10-23T09:52:24.962Z,21.40
2023-10-23T09:53:24.896Z,21.00
2023-10-23T09:54:24.890Z,20.20
2023-10-23T09:55:24.900Z,21.10
2023-10-23T09:56:24.847Z,21.00
2023-10-23T09:57:24.834Z,21.20
2023-10-23T09:58:24.890Z,20.20
2023-10-23T09:59:24.816Z,20.60
2023-10-23T10:00:24.810Z,21.50
2023-10-23T10:01:24.836Z,21.50
2023-10-23T10:02:24.822Z,22.40
2023-10-23T10:03:25.691Z,21.80
2023-10-23T10:04:24.775Z,20.60
2023-10-23T10:05:24.742Z,20.80
2023-10-23T10:06:24.757Z,20.80
2023-10-23T10:07:24.841Z,21.30
2023-10-23T10:08:24.723Z,20.50
2023-10-23T10:09:24.705Z,21.10
2023-10-23T10:10:24.743Z,20.00
2023-10-23T10:11:24.678Z,20.00
2023-10-23T10:12:27.529Z,19.10
2023-10-23T10:13:24.704Z,18.40
2023-10-23T10:14:24.661Z,18.50
2023-10-23T10:15:24.644Z,18.90
2023-10-23T10:16:24.694Z,18.20
2023-10-23T10:17:24.644Z,18.20
2023-10-23T10:18:24.633Z,17.60
2023-10-23T10:19:24.609Z,18.10
2023-10-23T10:20:24.579Z,17.20
2023-10-23T10:21:24.575Z,17.30
2023-10-23T10:22:24.642Z,17.00
2023-10-23T10:23:24.542Z,16.70
2023-10-23T10:24:24.535Z,18.40
2023-10-23T10:25:24.564Z,17.20
2023-10-23T10:26:24.531Z,17.10
2023-10-23T10:27:24.507Z,17.70
2023-10-23T10:28:24.538Z,18.00
2023-10-23T10:29:24.481Z,18.00
2023-10-23T10:30:24.469Z,17.50
2023-10-23T10:31:25.038Z,17.10
2023-10-23T10:32:24.488Z,16.90
2023-10-23T10:34:24.947Z,18.30
2023-10-23T10:34:37.619Z,18.70
2023-10-23T10:35:24.473Z,18.60
2023-10-23T10:36:47.001Z,18.60
2023-10-23T10:37:26.230Z,18.20
2023-10-23T10:38:24.392Z,18.00
2023-10-23T10:39:24.377Z,17.00
2023-10-23T10:40:24.497Z,17.20
2023-10-23T10:41:24.343Z,16.30
2023-10-23T10:42:24.337Z,17.10
2023-10-23T10:43:24.340Z,16.70
2023-10-23T10:44:24.326Z,16.00
2023-10-23T10:45:24.347Z,16.90
2023-10-23T10:46:24.447Z,18.40
2023-10-23T10:47:24.293Z,17.50
2023-10-23T10:48:24.278Z,18.50
2023-10-23T10:49:24.326Z,19.30
2023-10-23T10:50:24.265Z,18.60
2023-10-23T10:51:24.229Z,17.40
2023-10-23T10:52:24.324Z,16.80
2023-10-23T10:53:24.213Z,16.60
2023-10-23T10:54:24.216Z,17.20
2023-10-23T10:55:24.261Z,18.00
2023-10-23T10:56:24.221Z,17.90
2023-10-23T10:57:24.166Z,18.10
2023-10-23T10:58:24.189Z,18.30
2023-10-23T10:59:26.614Z,18.10
2023-10-23T11:00:24.168Z,17.90
2023-10-23T11:01:24.213Z,18.80
2023-10-23T11:02:24.129Z,20.70
2023-10-23T11:03:24.246Z,19.00
2023-10-23T11:04:24.164Z,20.10
2023-10-23T11:05:24.088Z,19.90
2023-10-23T11:06:24.060Z,20.60
2023-10-23T11:07:24.137Z,20.50
2023-10-23T11:08:24.050Z,21.60
2023-10-23T11:09:24.073Z,22.50
2023-10-23T11:10:24.036Z,22.20
2023-10-23T11:11:24.020Z,22.80
2023-10-23T11:12:24.000Z,22.80
2023-10-23T11:13:24.019Z,22.40
2023-10-23T11:14:23.972Z,20.40
2023-10-23T11:15:23.969Z,21.30
2023-10-23T11:16:24.096Z,20.90
2023-10-23T11:17:23.941Z,20.40
2023-10-23T11:18:23.946Z,20.00
2023-10-23T11:19:23.922Z,19.90
2023-10-23T11:20:23.903Z,19.80
2023-10-23T11:21:23.898Z,18.70
2023-10-23T11:22:23.927Z,19.10
2023-10-23T11:23:23.884Z,19.70
2023-10-23T11:24:23.857Z,19.90
2023-10-23T11:25:23.860Z,19.60
2023-10-23T11:26:23.842Z,19.90
2023-10-23T11:27:23.843Z,20.80
2023-10-23T11:28:23.823Z,20.50
2023-10-23T11:29:23.823Z,20.00
2023-10-23T11:30:23.788Z,19.70
2023-10-23T11:31:24.069Z,20.10
2023-10-23T11:32:23.784Z,19.60
2023-10-23T11:33:23.768Z,18.70
2023-10-23T11:34:24.623Z,19.40
2023-10-23T11:35:23.754Z,18.60
2023-10-23T11:36:23.750Z,19.20
2023-10-23T11:37:23.793Z,19.80
2023-10-23T11:38:23.711Z,18.70
2023-10-23T11:39:23.694Z,20.10
2023-10-23T11:40:23.722Z,19.80
2023-10-23T11:41:23.871Z,18.70
2023-10-23T11:42:23.679Z,19.50
2023-10-23T11:43:23.719Z,20.80
2023-10-23T11:44:23.641Z,19.30
2023-10-23T11:45:23.639Z,19.30
2023-10-23T11:46:23.720Z,19.00
2023-10-23T11:47:23.622Z,19.40
2023-10-23T11:48:23.598Z,18.80
2023-10-23T11:49:23.625Z,18.50
2023-10-23T11:50:23.588Z,19.30
2023-10-23T11:51:23.569Z,19.50
2023-10-23T11:52:23.571Z,18.50
2023-10-23T11:53:23.587Z,19.20
2023-10-23T11:54:23.526Z,18.80
2023-10-23T11:55:23.554Z,18.40
2023-10-23T11:56:23.506Z,19.50
2023-10-23T11:57:23.489Z,19.00
2023-10-23T11:58:23.513Z,19.50
2023-10-23T11:59:23.469Z,19.00
2023-10-23T12:00:23.490Z,18.00
2023-10-23T12:01:23.564Z,17.90
2023-10-23T12:02:23.469Z,18.50
2023-10-23T12:03:23.422Z,19.40
2023-10-23T12:04:23.518Z,18.40
2023-10-23T12:05:23.434Z,19.50
2023-10-23T12:06:23.410Z,17.70
2023-10-23T12:07:23.476Z,19.10
2023-10-23T12:08:23.513Z,19.00
2023-10-23T12:09:23.372Z,18.20
2023-10-23T12:10:23.375Z,18.60
2023-10-23T12:11:23.339Z,18.40
2023-10-23T12:12:23.326Z,19.10
2023-10-23T12:13:23.342Z,19.40
2023-10-23T12:14:23.331Z,19.10
2023-10-23T12:15:23.312Z,18.60
2023-10-23T12:16:23.346Z,18.60
2023-10-23T12:17:23.270Z,19.10
2023-10-23T12:18:23.274Z,18.50
2023-10-23T12:19:23.288Z,19.20
2023-10-23T12:20:23.706Z,19.20
2023-10-23T12:21:23.280Z,19.60
2023-10-23T12:22:23.261Z,18.50
2023-10-23T12:23:23.208Z,18.00
2023-10-23T12:24:23.280Z,18.70
2023-10-23T12:25:23.305Z,17.60
2023-10-23T12:26:23.205Z,18.10
2023-10-23T12:27:23.194Z,19.00
2023-10-23T12:28:23.201Z,18.40
2023-10-23T12:29:23.165Z,17.70
2023-10-23T12:30:24.260Z,17.30
2023-10-23T12:31:24.922Z,17.20
2023-10-23T12:33:11.603Z,16.80
2023-10-23T12:33:30.353Z,17.90
2023-10-23T12:34:23.275Z,18.10
2023-10-23T12:35:23.277Z,17.40
2023-10-23T12:36:23.064Z,15.60
2023-10-23T12:37:23.150Z,17.50
2023-10-23T12:38:23.043Z,17.10
2023-10-23T12:39:23.027Z,16.40
2023-10-23T12:41:22.999Z,16.00
2023-10-23T12:42:23.020Z,16.30
2023-10-23T12:43:23.022Z,15.90
2023-10-23T12:44:22.973Z,16.80
2023-10-23T12:45:22.954Z,16.30
2023-10-23T12:46:23.035Z,15.60
2023-10-23T12:47:22.983Z,16.20
2023-10-23T12:48:23.013Z,15.50
2023-10-23T12:49:22.947Z,16.10
2023-10-23T12:50:22.921Z,15.20
2023-10-23T12:51:22.894Z,16.10
2023-10-23T12:52:22.955Z,16.00
2023-10-23T12:53:22.885Z,15.40
2023-10-23T12:54:22.861Z,15.20
2023-10-23T12:55:22.902Z,15.90
2023-10-23T12:56:22.843Z,15.30
2023-10-23T12:57:22.817Z,16.30
2023-10-23T12:58:22.936Z,15.40
2023-10-23T12:59:22.798Z,16.00
2023-10-23T13:00:22.796Z,15.20
2023-10-23T13:01:22.866Z,15.60
2023-10-23T13:02:22.774Z,15.90
2023-10-23T13:03:22.761Z,14.60
2023-10-23T13:04:22.918Z,14.80
2023-10-23T13:05:22.740Z,15.00
2023-10-23T13:06:22.719Z,14.90
2023-10-23T13:07:22.777Z,15.10
2023-10-23T13:08:22.748Z,15.30